This is the latest recevied weather packets stored in our database for station/object kj4yre. If no packets are shown the sender has not sent any weather packets the latest 10 day(s).
| Time | Temp. | Humidity | Pressure | Rain* | Wind** | Luminosity | Snow |
|---|---|---|---|---|---|---|---|
| 1777442105 | 7.78° C | 99% | 1016.7 hPa | 0 mm | - | - | - |
| 1777440607 | 7.78° C | 97% | 1017.6 hPa | 0 mm | - | - | - |
| 1777439406 | 8.33° C | 97% | 1017.8 hPa | 0 mm | - | - | - |
| 1777431005 | 10° C | 89% | 1019.1 hPa | 0 mm | - | - | - |
| 1777425606 | 12.22° C | 81% | 1019 hPa | 0 mm | - | - | - |
| 1777424706 | 12.22° C | 79% | 1019.1 hPa | 0 mm | - | - | - |
| 1777421707 | 13.89° C | 74% | 1018.3 hPa | 0 mm | - | - | - |
| 1777419007 | 15.56° C | 70% | 1018.6 hPa | 0 mm | - | - | - |
| 1777417207 | 17.78° C | 65% | 1018.5 hPa | 0 mm | - | - | - |
| 1777413005 | 22.22° C | 54% | 1018 hPa | 0 mm | - | - | - |
| 1777406406 | 18.89° C | 55% | 1019.6 hPa | 0 mm | - | - | - |
| 1777399206 | 18.33° C | 61% | 1020.7 hPa | 0 mm | - | - | - |
| 1777397406 | 16.11° C | 70% | 1021.5 hPa | 0 mm | - | - | - |
| 1777396805 | 15.56° C | 75% | 1021.3 hPa | 0 mm | - | - | - |
| 1777394105 | 15.56° C | 74% | 1022.6 hPa | 0 mm | - | - | - |
| 1777386606 | 12.78° C | 86% | 1022.8 hPa | 0 mm | - | - | - |
| 1777384505 | 12.78° C | 86% | 1022.8 hPa | 0 mm | - | - | - |
| 1777383606 | 12.22° C | 90% | 1023.2 hPa | 0 mm | - | - | - |
| 1777380305 | 11.67° C | 92% | 1024.9 hPa | 0 mm | - | - | - |
| 1777377606 | 8.89° C | 100% | 1023.7 hPa | 0 mm | - | - | - |
| 1777376105 | 7.22° C | 100% | 1022.9 hPa | 0 mm | - | - | - |
| 1777374605 | 5.56° C | 100% | 1023.1 hPa | 0 mm | - | - | - |
| 1777373405 | 5° C | 100% | 1022.8 hPa | 0 mm | - | - | - |
| 1777371305 | 4.44° C | 100% | 1022.7 hPa | 0 mm | - | - | - |
* Rain latest hour (hover to see other rain measurements)
** Current wind speed in m/s (hover to see current wind gust speed)